This is the latest recevied weather packets stored in our database for station/object JF7BTK-10. If no packets are shown the sender has not sent any weather packets the latest 10 day(s).
| Time | Temp. | Humidity | Pressure | Rain* | Wind** | Luminosity | Snow |
|---|---|---|---|---|---|---|---|
| 1778124699 | 22.22° C | 50% | 1005.5 hPa | 0 mm | - | - | - |
| 1778122000 | 22.78° C | 43% | 1005.5 hPa | 0 mm | - | - | - |
| 1778121099 | 22.78° C | 48% | 1006 hPa | 0 mm | - | - | - |
| 1778120198 | 22.78° C | 49% | 1005.7 hPa | 0 mm | - | - | - |
| 1778117499 | 23.89° C | 41% | 1005.9 hPa | 0 mm | - | - | - |
| 1778116598 | 23.33° C | 42% | 1005.9 hPa | 0 mm | - | - | - |
| 1778115700 | 22.78° C | 41% | 1005.8 hPa | 0 mm | - | - | - |
| 1778114799 | 23.33° C | 41% | 1006.2 hPa | 0 mm | - | - | - |
| 1778113000 | 22.78° C | 41% | 1006.1 hPa | 0 mm | - | - | - |
| 1778112099 | 22.22° C | 42% | 1006.1 hPa | 0 mm | - | - | - |
| 1778111199 | 22.22° C | 44% | 1006.2 hPa | 0 mm | - | - | - |
| 1778110299 | 21.67° C | 47% | 1006.5 hPa | 0 mm | - | - | - |
| 1778109398 | 21.11° C | 48% | 1006.7 hPa | 0 mm | - | - | - |
| 1778108499 | 20.56° C | 49% | 1006.8 hPa | 0 mm | - | - | - |
| 1778107599 | 20° C | 50% | 1007 hPa | 0 mm | - | - | - |
| 1778106699 | 20° C | 50% | 1007.2 hPa | 0 mm | - | - | - |
| 1778105800 | 19.44° C | 51% | 1007.1 hPa | 0 mm | - | - | - |
| 1778104899 | 18.33° C | 53% | 1007.3 hPa | 0 mm | - | - | - |
| 1778103999 | 18.33° C | 55% | 1007.5 hPa | 0 mm | - | - | - |
| 1778103099 | 18.33° C | 55% | 1007.7 hPa | 0 mm | - | - | - |
| 1778102199 | 16.67° C | 63% | 1007.6 hPa | 0 mm | - | - | - |
| 1778101299 | 16.11° C | 63% | 1007.6 hPa | 0 mm | - | - | - |
| 1778100399 | 15° C | 65% | 1007.7 hPa | 0 mm | - | - | - |
| 1778098598 | 12.78° C | 70% | 1007.5 hPa | 0 mm | - | - | - |
| 1778097700 | 12.22° C | 72% | 1007.4 hPa | 0 mm | - | - | - |
* Rain latest hour (hover to see other rain measurements)
** Current wind speed in m/s (hover to see current wind gust speed)